sensor_id;sensor_type;location;lat;lon;timestamp;P1;durP1;ratioP1;P2;durP2;ratioP2
15577;SDS011;17667;45.598;5.214;2023-04-03T06:53:29;0.60;;;0.60;;
15577;SDS011;17667;45.598;5.214;2023-04-03T06:56:16;0.50;;;0.50;;
15577;SDS011;17667;45.598;5.214;2023-04-03T06:59:04;0.40;;;0.40;;
15577;SDS011;17667;45.598;5.214;2023-04-03T07:01:52;0.60;;;0.60;;
15577;SDS011;17667;45.598;5.214;2023-04-03T07:04:40;0.40;;;0.40;;
15577;SDS011;17667;45.598;5.214;2023-04-03T07:07:28;0.60;;;0.60;;
15577;SDS011;17667;45.598;5.214;2023-04-03T07:10:17;0.50;;;0.50;;
15577;SDS011;17667;45.598;5.214;2023-04-03T07:13:05;0.50;;;0.50;;
15577;SDS011;17667;45.598;5.214;2023-04-03T07:15:52;0.50;;;0.50;;
15577;SDS011;17667;45.598;5.214;2023-04-03T07:18:40;0.40;;;0.40;;
15577;SDS011;17667;45.598;5.214;2023-04-03T07:21:28;0.50;;;0.50;;
15577;SDS011;17667;45.598;5.214;2023-04-03T07:24:16;0.50;;;0.50;;
15577;SDS011;17667;45.598;5.214;2023-04-03T07:27:05;0.50;;;0.50;;
15577;SDS011;17667;45.598;5.214;2023-04-03T07:29:54;0.30;;;0.30;;
15577;SDS011;17667;45.598;5.214;2023-04-03T07:32:42;0.40;;;0.40;;
15577;SDS011;17667;45.598;5.214;2023-04-03T07:35:30;0.50;;;0.50;;
15577;SDS011;17667;45.598;5.214;2023-04-03T07:38:17;0.60;;;0.60;;
15577;SDS011;17667;45.598;5.214;2023-04-03T07:41:05;0.50;;;0.50;;
15577;SDS011;17667;45.598;5.214;2023-04-03T07:43:54;0.50;;;0.50;;
15577;SDS011;17667;45.598;5.214;2023-04-03T07:46:42;0.50;;;0.50;;
15577;SDS011;17667;45.598;5.214;2023-04-03T07:49:30;0.40;;;0.40;;
15577;SDS011;17667;45.598;5.214;2023-04-03T07:52:18;0.40;;;0.40;;
15577;SDS011;17667;45.598;5.214;2023-04-03T07:55:06;0.50;;;0.50;;
15577;SDS011;17667;45.598;5.214;2023-04-03T07:57:54;0.60;;;0.60;;
15577;SDS011;17667;45.598;5.214;2023-04-03T08:00:43;0.60;;;0.60;;
15577;SDS011;17667;45.598;5.214;2023-04-03T08:03:31;0.60;;;0.60;;
15577;SDS011;17667;45.598;5.214;2023-04-03T08:06:18;0.70;;;0.70;;
15577;SDS011;17667;45.598;5.214;2023-04-03T08:09:11;0.70;;;0.70;;
15577;SDS011;17667;45.598;5.214;2023-04-03T08:11:59;0.80;;;0.80;;
15577;SDS011;17667;45.598;5.214;2023-04-03T08:14:47;0.90;;;0.90;;
15577;SDS011;17667;45.598;5.214;2023-04-03T08:17:36;0.93;;;0.93;;
15577;SDS011;17667;45.598;5.214;2023-04-03T08:20:23;0.87;;;0.87;;
15577;SDS011;17667;45.598;5.214;2023-04-03T08:23:12;0.77;;;0.77;;
15577;SDS011;17667;45.598;5.214;2023-04-03T08:26:05;0.70;;;0.70;;
15577;SDS011;17667;45.598;5.214;2023-04-03T08:28:53;0.77;;;0.77;;
15577;SDS011;17667;45.598;5.214;2023-04-03T08:31:41;0.80;;;0.80;;
15577;SDS011;17667;45.598;5.214;2023-04-03T08:34:30;0.67;;;0.67;;
15577;SDS011;17667;45.598;5.214;2023-04-03T08:37:20;0.70;;;0.70;;
15577;SDS011;17667;45.598;5.214;2023-04-03T08:40:11;0.50;;;0.50;;
15577;SDS011;17667;45.598;5.214;2023-04-03T08:43:04;0.90;;;0.90;;
15577;SDS011;17667;45.598;5.214;2023-04-03T08:46:01;0.90;;;0.90;;
15577;SDS011;17667;45.598;5.214;2023-04-03T08:48:52;0.70;;;0.70;;
15577;SDS011;17667;45.598;5.214;2023-04-03T08:51:42;0.67;;;0.67;;
15577;SDS011;17667;45.598;5.214;2023-04-03T08:54:34;0.77;;;0.77;;
15577;SDS011;17667;45.598;5.214;2023-04-03T08:57:28;0.57;;;0.57;;
15577;SDS011;17667;45.598;5.214;2023-04-03T09:00:20;0.70;;;0.70;;
15577;SDS011;17667;45.598;5.214;2023-04-03T09:03:11;0.70;;;0.70;;
15577;SDS011;17667;45.598;5.214;2023-04-03T09:06:02;0.80;;;0.80;;
15577;SDS011;17667;45.598;5.214;2023-04-03T09:08:55;0.80;;;0.80;;
15577;SDS011;17667;45.598;5.214;2023-04-03T09:11:55;0.83;;;0.80;;
15577;SDS011;17667;45.598;5.214;2023-04-03T09:14:54;0.80;;;0.80;;
15577;SDS011;17667;45.598;5.214;2023-04-03T09:17:49;1.27;;;1.17;;
15577;SDS011;17667;45.598;5.214;2023-04-03T09:20:46;1.40;;;1.30;;
15577;SDS011;17667;45.598;5.214;2023-04-03T09:23:41;0.90;;;0.90;;
15577;SDS011;17667;45.598;5.214;2023-04-03T09:26:33;1.30;;;1.20;;
15577;SDS011;17667;45.598;5.214;2023-04-03T09:29:25;1.30;;;1.20;;
15577;SDS011;17667;45.598;5.214;2023-04-03T09:32:25;1.30;;;1.20;;
15577;SDS011;17667;45.598;5.214;2023-04-03T09:35:22;1.30;;;1.20;;
15577;SDS011;17667;45.598;5.214;2023-04-03T09:38:16;1.30;;;1.20;;
15577;SDS011;17667;45.598;5.214;2023-04-03T09:41:07;1.60;;;1.50;;
15577;SDS011;17667;45.598;5.214;2023-04-03T09:44:04;1.50;;;1.40;;
15577;SDS011;17667;45.598;5.214;2023-04-03T09:47:17;1.57;;;1.47;;
15577;SDS011;17667;45.598;5.214;2023-04-03T09:50:17;1.77;;;1.67;;
15577;SDS011;17667;45.598;5.214;2023-04-03T09:53:07;1.20;;;1.20;;
15577;SDS011;17667;45.598;5.214;2023-04-03T09:56:18;1.60;;;1.10;;
15577;SDS011;17667;45.598;5.214;2023-04-03T09:59:14;1.30;;;1.20;;
15577;SDS011;17667;45.598;5.214;2023-04-03T10:02:04;1.50;;;1.40;;
15577;SDS011;17667;45.598;5.214;2023-04-03T10:05:26;1.10;;;1.10;;
15577;SDS011;17667;45.598;5.214;2023-04-03T10:08:20;1.80;;;1.70;;
15577;SDS011;17667;45.598;5.214;2023-04-03T10:11:15;1.70;;;1.60;;
15577;SDS011;17667;45.598;5.214;2023-04-03T10:14:04;1.87;;;1.77;;
15577;SDS011;17667;45.598;5.214;2023-04-03T10:17:05;1.80;;;1.70;;
15577;SDS011;17667;45.598;5.214;2023-04-03T10:20:05;2.17;;;1.80;;
15577;SDS011;17667;45.598;5.214;2023-04-03T10:23:03;1.83;;;1.73;;
15577;SDS011;17667;45.598;5.214;2023-04-03T10:26:09;1.77;;;1.67;;
15577;SDS011;17667;45.598;5.214;2023-04-03T10:29:06;2.20;;;2.00;;
15577;SDS011;17667;45.598;5.214;2023-04-03T10:32:02;1.53;;;1.43;;
15577;SDS011;17667;45.598;5.214;2023-04-03T10:35:02;1.57;;;1.47;;
15577;SDS011;17667;45.598;5.214;2023-04-03T10:37:59;1.33;;;1.13;;
15577;SDS011;17667;45.598;5.214;2023-04-03T10:40:52;1.30;;;1.20;;
15577;SDS011;17667;45.598;5.214;2023-04-03T10:43:49;1.00;;;1.00;;
15577;SDS011;17667;45.598;5.214;2023-04-03T10:46:43;1.27;;;1.17;;
15577;SDS011;17667;45.598;5.214;2023-04-03T10:49:38;1.40;;;1.30;;
15577;SDS011;17667;45.598;5.214;2023-04-03T10:52:43;1.37;;;1.27;;
15577;SDS011;17667;45.598;5.214;2023-04-03T10:55:38;1.63;;;1.30;;
15577;SDS011;17667;45.598;5.214;2023-04-03T10:58:32;1.50;;;1.40;;
15577;SDS011;17667;45.598;5.214;2023-04-03T11:01:23;1.50;;;1.30;;
15577;SDS011;17667;45.598;5.214;2023-04-03T11:04:17;1.43;;;1.33;;
15577;SDS011;17667;45.598;5.214;2023-04-03T11:07:10;1.47;;;1.37;;
15577;SDS011;17667;45.598;5.214;2023-04-03T11:10:03;1.50;;;1.40;;
15577;SDS011;17667;45.598;5.214;2023-04-03T11:13:02;1.27;;;1.13;;
15577;SDS011;17667;45.598;5.214;2023-04-03T11:15:58;1.00;;;0.90;;
15577;SDS011;17667;45.598;5.214;2023-04-03T11:18:47;1.10;;;1.00;;
15577;SDS011;17667;45.598;5.214;2023-04-03T11:21:39;1.23;;;1.10;;
15577;SDS011;17667;45.598;5.214;2023-04-03T11:24:32;1.00;;;1.00;;
15577;SDS011;17667;45.598;5.214;2023-04-03T11:27:23;2.00;;;1.20;;
15577;SDS011;17667;45.598;5.214;2023-04-03T11:30:14;1.57;;;0.93;;
15577;SDS011;17667;45.598;5.214;2023-04-03T11:33:11;1.50;;;0.80;;
15577;SDS011;17667;45.598;5.214;2023-04-03T11:36:09;0.97;;;0.90;;
15577;SDS011;17667;45.598;5.214;2023-04-03T11:39:10;0.80;;;0.80;;
15577;SDS011;17667;45.598;5.214;2023-04-03T11:42:16;0.80;;;0.80;;
15577;SDS011;17667;45.598;5.214;2023-04-03T11:45:16;0.60;;;0.60;;
15577;SDS011;17667;45.598;5.214;2023-04-03T11:51:38;1.10;;;1.00;;
15577;SDS011;17667;45.598;5.214;2023-04-03T11:54:46;0.80;;;0.80;;
15577;SDS011;17667;45.598;5.214;2023-04-03T11:57:46;0.80;;;0.80;;
15577;SDS011;17667;45.598;5.214;2023-04-03T12:00:56;1.00;;;0.90;;
15577;SDS011;17667;45.598;5.214;2023-04-03T12:04:03;1.00;;;0.90;;
15577;SDS011;17667;45.598;5.214;2023-04-03T12:10:16;0.80;;;0.80;;
15577;SDS011;17667;45.598;5.214;2023-04-03T12:13:15;0.70;;;0.70;;
15577;SDS011;17667;45.598;5.214;2023-04-03T12:16:04;1.73;;;0.80;;
15577;SDS011;17667;45.598;5.214;2023-04-03T12:18:55;0.90;;;0.90;;
15577;SDS011;17667;45.598;5.214;2023-04-03T12:24:53;1.40;;;1.30;;
15577;SDS011;17667;45.598;5.214;2023-04-03T12:27:41;1.47;;;1.20;;
15577;SDS011;17667;45.598;5.214;2023-04-03T12:30:31;1.13;;;0.90;;
15577;SDS011;17667;45.598;5.214;2023-04-03T12:33:23;0.97;;;0.97;;
15577;SDS011;17667;45.598;5.214;2023-04-03T12:36:22;1.20;;;1.10;;
15577;SDS011;17667;45.598;5.214;2023-04-03T12:42:51;1.30;;;1.20;;
15577;SDS011;17667;45.598;5.214;2023-04-03T12:45:58;1.50;;;1.40;;
15577;SDS011;17667;45.598;5.214;2023-04-03T12:48:50;1.40;;;1.30;;
15577;SDS011;17667;45.598;5.214;2023-04-03T12:51:41;1.20;;;1.10;;
15577;SDS011;17667;45.598;5.214;2023-04-03T12:54:32;1.10;;;1.00;;
15577;SDS011;17667;45.598;5.214;2023-04-03T12:57:23;1.30;;;1.20;;
15577;SDS011;17667;45.598;5.214;2023-04-03T13:00:19;1.87;;;0.97;;
15577;SDS011;17667;45.598;5.214;2023-04-03T13:03:21;1.20;;;1.10;;
15577;SDS011;17667;45.598;5.214;2023-04-03T13:06:14;1.40;;;1.30;;
15577;SDS011;17667;45.598;5.214;2023-04-03T13:09:06;1.50;;;1.40;;
15577;SDS011;17667;45.598;5.214;2023-04-03T13:12:09;1.60;;;1.50;;
15577;SDS011;17667;45.598;5.214;2023-04-03T13:15:00;1.97;;;1.87;;
15577;SDS011;17667;45.598;5.214;2023-04-03T13:17:50;2.23;;;2.03;;
15577;SDS011;17667;45.598;5.214;2023-04-03T13:20:40;2.13;;;1.90;;
15577;SDS011;17667;45.598;5.214;2023-04-03T13:23:28;2.27;;;2.10;;
15577;SDS011;17667;45.598;5.214;2023-04-03T13:26:17;2.20;;;2.10;;
15577;SDS011;17667;45.598;5.214;2023-04-03T13:29:07;2.70;;;2.50;;
15577;SDS011;17667;45.598;5.214;2023-04-03T13:32:13;2.27;;;2.07;;
15577;SDS011;17667;45.598;5.214;2023-04-03T13:38:24;2.10;;;2.00;;
15577;SDS011;17667;45.598;5.214;2023-04-03T13:41:22;2.07;;;1.97;;
15577;SDS011;17667;45.598;5.214;2023-04-03T13:44:17;2.20;;;2.00;;
15577;SDS011;17667;45.598;5.214;2023-04-03T13:47:15;3.13;;;2.07;;
15577;SDS011;17667;45.598;5.214;2023-04-03T13:50:19;2.27;;;2.07;;
15577;SDS011;17667;45.598;5.214;2023-04-03T13:53:09;1.70;;;1.60;;
15577;SDS011;17667;45.598;5.214;2023-04-03T13:56:06;1.70;;;1.60;;
15577;SDS011;17667;45.598;5.214;2023-04-03T13:58:56;1.50;;;1.40;;
15577;SDS011;17667;45.598;5.214;2023-04-03T14:01:52;1.83;;;1.73;;
15577;SDS011;17667;45.598;5.214;2023-04-03T14:04:46;1.50;;;1.40;;
15577;SDS011;17667;45.598;5.214;2023-04-03T14:07:39;1.90;;;1.80;;
15577;SDS011;17667;45.598;5.214;2023-04-03T14:10:26;1.93;;;1.70;;
15577;SDS011;17667;45.598;5.214;2023-04-03T14:13:17;2.10;;;1.97;;
15577;SDS011;17667;45.598;5.214;2023-04-03T14:16:06;2.40;;;2.20;;
15577;SDS011;17667;45.598;5.214;2023-04-03T14:18:58;2.60;;;2.40;;
15577;SDS011;17667;45.598;5.214;2023-04-03T14:21:45;2.63;;;2.43;;
15577;SDS011;17667;45.598;5.214;2023-04-03T14:24:33;2.80;;;2.60;;
15577;SDS011;17667;45.598;5.214;2023-04-03T14:27:22;2.60;;;2.40;;
15577;SDS011;17667;45.598;5.214;2023-04-03T14:30:15;2.77;;;2.57;;
15577;SDS011;17667;45.598;5.214;2023-04-03T14:33:06;2.67;;;2.47;;
15577;SDS011;17667;45.598;5.214;2023-04-03T14:35:57;5.87;;;2.70;;
15577;SDS011;17667;45.598;5.214;2023-04-03T14:38:45;3.30;;;3.00;;
15577;SDS011;17667;45.598;5.214;2023-04-03T14:41:34;2.70;;;2.50;;
15577;SDS011;17667;45.598;5.214;2023-04-03T14:44:22;2.47;;;2.27;;
15577;SDS011;17667;45.598;5.214;2023-04-03T14:47:12;2.53;;;2.33;;
15577;SDS011;17667;45.598;5.214;2023-04-03T14:50:11;3.13;;;2.80;;
15577;SDS011;17667;45.598;5.214;2023-04-03T14:53:00;2.93;;;2.60;;
15577;SDS011;17667;45.598;5.214;2023-04-03T14:55:48;3.00;;;2.30;;
15577;SDS011;17667;45.598;5.214;2023-04-03T14:58:36;3.00;;;2.20;;
15577;SDS011;17667;45.598;5.214;2023-04-03T15:01:24;2.57;;;2.37;;
15577;SDS011;17667;45.598;5.214;2023-04-03T15:04:14;2.03;;;1.93;;
15577;SDS011;17667;45.598;5.214;2023-04-03T15:07:04;1.70;;;1.60;;
15577;SDS011;17667;45.598;5.214;2023-04-03T15:09:52;2.93;;;2.30;;
15577;SDS011;17667;45.598;5.214;2023-04-03T15:12:41;2.40;;;2.20;;
15577;SDS011;17667;45.598;5.214;2023-04-03T15:15:29;2.60;;;2.40;;
15577;SDS011;17667;45.598;5.214;2023-04-03T15:18:18;2.50;;;2.30;;
15577;SDS011;17667;45.598;5.214;2023-04-03T15:21:08;2.47;;;2.27;;
15577;SDS011;17667;45.598;5.214;2023-04-03T15:23:56;2.40;;;2.20;;
15577;SDS011;17667;45.598;5.214;2023-04-03T15:26:45;2.63;;;2.43;;
15577;SDS011;17667;45.598;5.214;2023-04-03T15:29:32;2.40;;;2.20;;
15577;SDS011;17667;45.598;5.214;2023-04-03T15:32:20;2.70;;;2.50;;
15577;SDS011;17667;45.598;5.214;2023-04-03T15:35:08;2.40;;;2.20;;
15577;SDS011;17667;45.598;5.214;2023-04-03T15:37:57;1.93;;;1.70;;
15577;SDS011;17667;45.598;5.214;2023-04-03T15:40:45;2.30;;;2.10;;
15577;SDS011;17667;45.598;5.214;2023-04-03T15:43:34;2.47;;;2.20;;
15577;SDS011;17667;45.598;5.214;2023-04-03T15:46:21;2.47;;;1.90;;
15577;SDS011;17667;45.598;5.214;2023-04-03T15:49:11;2.07;;;1.90;;
15577;SDS011;17667;45.598;5.214;2023-04-03T15:51:58;1.70;;;1.60;;
15577;SDS011;17667;45.598;5.214;2023-04-03T15:54:47;3.37;;;1.70;;
15577;SDS011;17667;45.598;5.214;2023-04-03T15:57:35;2.13;;;1.93;;
15577;SDS011;17667;45.598;5.214;2023-04-03T16:00:27;2.10;;;1.80;;
15577;SDS011;17667;45.598;5.214;2023-04-03T16:03:17;3.07;;;2.20;;
15577;SDS011;17667;45.598;5.214;2023-04-03T16:06:06;2.23;;;1.97;;
15577;SDS011;17667;45.598;5.214;2023-04-03T16:08:54;1.97;;;1.77;;
15577;SDS011;17667;45.598;5.214;2023-04-03T16:11:45;1.97;;;1.60;;
15577;SDS011;17667;45.598;5.214;2023-04-03T16:14:32;2.03;;;1.83;;
15577;SDS011;17667;45.598;5.214;2023-04-03T16:17:20;1.90;;;1.80;;
15577;SDS011;17667;45.598;5.214;2023-04-03T16:20:08;2.70;;;2.10;;
15577;SDS011;17667;45.598;5.214;2023-04-03T16:22:58;1.80;;;1.63;;
15577;SDS011;17667;45.598;5.214;2023-04-03T16:25:48;1.70;;;1.60;;
15577;SDS011;17667;45.598;5.214;2023-04-03T16:28:37;1.70;;;1.60;;
15577;SDS011;17667;45.598;5.214;2023-04-03T16:31:24;1.70;;;1.40;;
15577;SDS011;17667;45.598;5.214;2023-04-03T16:34:13;1.60;;;1.50;;
15577;SDS011;17667;45.598;5.214;2023-04-03T16:37:01;1.63;;;1.47;;
15577;SDS011;17667;45.598;5.214;2023-04-03T16:39:49;1.30;;;1.20;;
15577;SDS011;17667;45.598;5.214;2023-04-03T16:42:37;1.03;;;0.93;;
15577;SDS011;17667;45.598;5.214;2023-04-03T16:45:26;1.00;;;0.83;;
15577;SDS011;17667;45.598;5.214;2023-04-03T16:48:13;0.70;;;0.70;;
15577;SDS011;17667;45.598;5.214;2023-04-03T16:51:01;0.70;;;0.70;;
15577;SDS011;17667;45.598;5.214;2023-04-03T16:53:49;0.70;;;0.70;;
15577;SDS011;17667;45.598;5.214;2023-04-03T16:56:36;0.80;;;0.80;;
15577;SDS011;17667;45.598;5.214;2023-04-03T16:59:24;1.10;;;1.00;;
15577;SDS011;17667;45.598;5.214;2023-04-03T17:02:14;1.30;;;0.90;;
15577;SDS011;17667;45.598;5.214;2023-04-03T17:05:01;1.27;;;1.10;;
15577;SDS011;17667;45.598;5.214;2023-04-03T17:07:49;0.80;;;0.80;;
15577;SDS011;17667;45.598;5.214;2023-04-03T17:10:37;1.00;;;0.90;;
15577;SDS011;17667;45.598;5.214;2023-04-03T17:13:24;0.77;;;0.77;;
15577;SDS011;17667;45.598;5.214;2023-04-03T17:16:17;0.83;;;0.83;;
15577;SDS011;17667;45.598;5.214;2023-04-03T17:19:06;1.10;;;1.00;;
15577;SDS011;17667;45.598;5.214;2023-04-03T17:21:54;1.27;;;1.17;;
15577;SDS011;17667;45.598;5.214;2023-04-03T17:24:42;1.10;;;1.00;;
15577;SDS011;17667;45.598;5.214;2023-04-03T17:27:30;0.80;;;0.80;;
15577;SDS011;17667;45.598;5.214;2023-04-03T17:30:17;0.93;;;0.90;;
15577;SDS011;17667;45.598;5.214;2023-04-03T17:33:05;1.07;;;1.00;;
15577;SDS011;17667;45.598;5.214;2023-04-03T17:35:54;1.10;;;1.00;;
15577;SDS011;17667;45.598;5.214;2023-04-03T17:38:43;1.13;;;1.03;;
15577;SDS011;17667;45.598;5.214;2023-04-03T17:41:33;1.30;;;1.20;;
15577;SDS011;17667;45.598;5.214;2023-04-03T17:44:20;1.10;;;1.00;;
15577;SDS011;17667;45.598;5.214;2023-04-03T17:47:08;1.10;;;1.00;;
15577;SDS011;17667;45.598;5.214;2023-04-03T17:49:56;7.67;;;1.70;;
15577;SDS011;17667;45.598;5.214;2023-04-03T17:52:45;2.67;;;1.23;;
15577;SDS011;17667;45.598;5.214;2023-04-03T17:55:33;2.57;;;1.10;;
15577;SDS011;17667;45.598;5.214;2023-04-03T17:58:23;1.43;;;1.07;;
15577;SDS011;17667;45.598;5.214;2023-04-03T18:01:12;1.27;;;0.80;;
15577;SDS011;17667;45.598;5.214;2023-04-03T18:04:01;1.13;;;1.03;;
15577;SDS011;17667;45.598;5.214;2023-04-03T18:06:51;0.90;;;0.80;;
15577;SDS011;17667;45.598;5.214;2023-04-03T18:09:42;1.03;;;1.00;;
15577;SDS011;17667;45.598;5.214;2023-04-03T18:12:32;1.43;;;1.20;;
15577;SDS011;17667;45.598;5.214;2023-04-03T18:15:20;1.17;;;0.90;;
15577;SDS011;17667;45.598;5.214;2023-04-03T18:18:08;0.90;;;0.90;;
15577;SDS011;17667;45.598;5.214;2023-04-03T18:20:57;1.40;;;1.30;;
15577;SDS011;17667;45.598;5.214;2023-04-03T18:23:46;1.40;;;1.30;;
15577;SDS011;17667;45.598;5.214;2023-04-03T18:26:37;1.27;;;1.10;;
15577;SDS011;17667;45.598;5.214;2023-04-03T18:29:27;1.30;;;1.20;;
15577;SDS011;17667;45.598;5.214;2023-04-03T18:32:18;1.20;;;1.10;;
15577;SDS011;17667;45.598;5.214;2023-04-03T18:35:09;1.20;;;1.10;;
15577;SDS011;17667;45.598;5.214;2023-04-03T18:37:56;1.20;;;1.10;;
15577;SDS011;17667;45.598;5.214;2023-04-03T18:40:44;1.20;;;1.10;;
15577;SDS011;17667;45.598;5.214;2023-04-03T18:43:34;0.90;;;0.90;;
15577;SDS011;17667;45.598;5.214;2023-04-03T18:46:22;1.07;;;0.87;;
15577;SDS011;17667;45.598;5.214;2023-04-03T18:49:10;2.13;;;1.60;;
15577;SDS011;17667;45.598;5.214;2023-04-03T18:51:59;0.90;;;0.90;;
15577;SDS011;17667;45.598;5.214;2023-04-03T18:54:47;1.30;;;1.20;;
15577;SDS011;17667;45.598;5.214;2023-04-03T18:57:35;1.30;;;1.10;;
15577;SDS011;17667;45.598;5.214;2023-04-03T19:00:24;0.83;;;0.83;;
15577;SDS011;17667;45.598;5.214;2023-04-03T19:03:11;0.90;;;0.90;;
15577;SDS011;17667;45.598;5.214;2023-04-03T19:05:59;1.03;;;0.80;;
15577;SDS011;17667;45.598;5.214;2023-04-03T19:08:48;0.70;;;0.70;;
15577;SDS011;17667;45.598;5.214;2023-04-03T19:11:36;0.80;;;0.80;;
15577;SDS011;17667;45.598;5.214;2023-04-03T19:14:24;1.30;;;0.60;;
15577;SDS011;17667;45.598;5.214;2023-04-03T19:17:13;1.40;;;1.00;;
15577;SDS011;17667;45.598;5.214;2023-04-03T19:20:01;0.80;;;0.80;;
15577;SDS011;17667;45.598;5.214;2023-04-03T19:22:49;0.80;;;0.80;;
15577;SDS011;17667;45.598;5.214;2023-04-03T19:25:37;0.77;;;0.70;;
15577;SDS011;17667;45.598;5.214;2023-04-03T19:28:26;0.70;;;0.70;;
15577;SDS011;17667;45.598;5.214;2023-04-03T19:31:14;0.60;;;0.60;;
15577;SDS011;17667;45.598;5.214;2023-04-03T19:34:05;0.50;;;0.50;;
15577;SDS011;17667;45.598;5.214;2023-04-03T19:36:53;0.50;;;0.50;;
15577;SDS011;17667;45.598;5.214;2023-04-03T19:39:41;0.60;;;0.60;;
15577;SDS011;17667;45.598;5.214;2023-04-03T19:42:29;0.60;;;0.60;;
15577;SDS011;17667;45.598;5.214;2023-04-03T19:45:17;0.70;;;0.70;;
15577;SDS011;17667;45.598;5.214;2023-04-03T19:48:05;1.10;;;1.00;;
15577;SDS011;17667;45.598;5.214;2023-04-03T19:50:54;1.30;;;1.20;;
15577;SDS011;17667;45.598;5.214;2023-04-03T19:53:42;1.50;;;1.30;;
15577;SDS011;17667;45.598;5.214;2023-04-03T19:56:31;1.67;;;1.40;;
15577;SDS011;17667;45.598;5.214;2023-04-03T19:59:19;1.37;;;1.27;;
15577;SDS011;17667;45.598;5.214;2023-04-03T20:02:07;1.83;;;1.60;;
15577;SDS011;17667;45.598;5.214;2023-04-03T20:04:54;1.70;;;1.60;;
15577;SDS011;17667;45.598;5.214;2023-04-03T20:07:43;1.70;;;1.60;;
15577;SDS011;17667;45.598;5.214;2023-04-03T20:10:32;1.73;;;1.43;;
15577;SDS011;17667;45.598;5.214;2023-04-03T20:13:24;1.93;;;1.33;;
15577;SDS011;17667;45.598;5.214;2023-04-03T20:16:12;1.30;;;1.20;;
15577;SDS011;17667;45.598;5.214;2023-04-03T20:19:00;1.70;;;1.50;;
15577;SDS011;17667;45.598;5.214;2023-04-03T20:21:47;1.53;;;1.43;;
15577;SDS011;17667;45.598;5.214;2023-04-03T20:24:36;2.20;;;1.80;;
15577;SDS011;17667;45.598;5.214;2023-04-03T20:27:25;1.83;;;1.67;;
15577;SDS011;17667;45.598;5.214;2023-04-03T20:30:13;1.90;;;1.80;;
15577;SDS011;17667;45.598;5.214;2023-04-03T20:33:01;2.43;;;2.23;;
15577;SDS011;17667;45.598;5.214;2023-04-03T20:35:49;2.53;;;1.80;;
15577;SDS011;17667;45.598;5.214;2023-04-03T20:38:38;1.90;;;1.80;;
15577;SDS011;17667;45.598;5.214;2023-04-03T20:41:27;1.90;;;1.70;;
15577;SDS011;17667;45.598;5.214;2023-04-03T20:44:16;2.03;;;1.83;;
15577;SDS011;17667;45.598;5.214;2023-04-03T20:47:05;1.97;;;1.80;;
15577;SDS011;17667;45.598;5.214;2023-04-03T20:49:53;2.17;;;2.00;;
15577;SDS011;17667;45.598;5.214;2023-04-03T20:52:41;2.73;;;2.27;;
15577;SDS011;17667;45.598;5.214;2023-04-03T20:55:29;1.97;;;1.80;;
15577;SDS011;17667;45.598;5.214;2023-04-03T20:58:18;1.60;;;1.50;;
15577;SDS011;17667;45.598;5.214;2023-04-03T21:01:12;1.80;;;1.70;;
15577;SDS011;17667;45.598;5.214;2023-04-03T21:04:04;2.40;;;1.70;;
15577;SDS011;17667;45.598;5.214;2023-04-03T21:20:04;2.17;;;1.97;;
15577;SDS011;17667;45.598;5.214;2023-04-03T21:22:53;2.40;;;2.20;;
15577;SDS011;17667;45.598;5.214;2023-04-03T21:25:41;2.30;;;2.07;;
15577;SDS011;17667;45.598;5.214;2023-04-03T21:28:28;1.73;;;1.63;;
15577;SDS011;17667;45.598;5.214;2023-04-03T21:31:16;1.97;;;1.77;;
15577;SDS011;17667;45.598;5.214;2023-04-03T21:34:04;1.60;;;1.50;;
15577;SDS011;17667;45.598;5.214;2023-04-03T21:36:53;1.83;;;1.73;;
15577;SDS011;17667;45.598;5.214;2023-04-03T21:39:42;2.13;;;1.80;;
15577;SDS011;17667;45.598;5.214;2023-04-03T21:42:29;1.80;;;1.70;;
15577;SDS011;17667;45.598;5.214;2023-04-03T21:45:17;1.70;;;1.60;;
15577;SDS011;17667;45.598;5.214;2023-04-03T21:48:05;2.03;;;1.80;;
15577;SDS011;17667;45.598;5.214;2023-04-03T21:51:00;1.77;;;1.67;;
15577;SDS011;17667;45.598;5.214;2023-04-03T21:53:51;1.80;;;1.70;;
15577;SDS011;17667;45.598;5.214;2023-04-03T21:56:39;2.20;;;1.80;;
15577;SDS011;17667;45.598;5.214;2023-04-03T21:59:27;2.20;;;2.00;;
